createdAt,value
2023-04-23T00:01:02.294Z,10.68
2023-04-23T00:02:06.395Z,10.68
2023-04-23T00:03:10.214Z,10.70
2023-04-23T00:04:12.379Z,10.68
2023-04-23T00:05:14.081Z,10.73
2023-04-23T00:06:17.669Z,10.72
2023-04-23T00:07:20.024Z,10.65
2023-04-23T00:08:22.541Z,10.66
2023-04-23T00:09:24.492Z,10.65
2023-04-23T00:10:27.062Z,10.64
2023-04-23T00:11:28.613Z,10.66
2023-04-23T00:12:30.353Z,10.53
2023-04-23T00:13:32.279Z,10.51
2023-04-23T00:14:33.868Z,10.56
2023-04-23T00:15:35.597Z,10.57
2023-04-23T00:16:37.507Z,10.57
2023-04-23T00:17:39.057Z,10.60
2023-04-23T00:18:40.721Z,10.59
2023-04-23T00:19:42.237Z,10.60
2023-04-23T00:20:43.795Z,10.63
2023-04-23T00:21:45.570Z,10.67
2023-04-23T00:22:47.167Z,10.64
2023-04-23T00:23:48.786Z,10.61
2023-04-23T00:24:50.372Z,10.64
2023-04-23T00:25:51.923Z,10.60
2023-04-23T00:26:53.665Z,10.62
2023-04-23T00:27:55.231Z,10.63
2023-04-23T00:28:56.746Z,10.63
2023-04-23T00:29:58.178Z,10.60
2023-04-23T00:30:59.771Z,10.58
2023-04-23T00:32:04.316Z,10.53
2023-04-23T00:33:08.423Z,10.56
2023-04-23T00:34:10.040Z,10.43
2023-04-23T00:35:11.634Z,10.45
2023-04-23T00:36:13.251Z,10.48
2023-04-23T00:37:15.046Z,10.45
2023-04-23T00:39:18.390Z,10.49
2023-04-23T00:40:20.777Z,10.49
2023-04-23T00:41:22.874Z,10.50
2023-04-23T00:42:24.523Z,10.48
2023-04-23T00:43:26.702Z,10.50
2023-04-23T00:44:28.286Z,10.52
2023-04-23T00:45:29.803Z,10.47
2023-04-23T00:46:33.803Z,10.44
2023-04-23T00:47:35.970Z,10.43
2023-04-23T00:48:37.753Z,10.43
2023-04-23T00:49:39.461Z,10.48
2023-04-23T00:50:41.587Z,10.47
2023-04-23T00:51:45.641Z,10.42
2023-04-23T00:52:47.122Z,10.43
2023-04-23T00:53:49.318Z,10.46
2023-04-23T00:54:53.174Z,10.55
2023-04-23T00:55:54.816Z,10.38
2023-04-23T00:56:58.077Z,10.39
2023-04-23T00:58:00.745Z,10.42
2023-04-23T00:59:03.385Z,10.32
2023-04-23T01:00:05.939Z,10.39
2023-04-23T01:01:07.763Z,10.40
2023-04-23T01:02:09.473Z,10.40
2023-04-23T01:03:11.397Z,10.39
2023-04-23T01:04:14.833Z,10.37
2023-04-23T01:05:19.857Z,10.36
2023-04-23T01:06:21.589Z,10.36
2023-04-23T01:07:23.581Z,10.39
2023-04-23T01:08:26.095Z,10.42
2023-04-23T01:09:27.944Z,10.47
2023-04-23T01:10:32.574Z,10.38
2023-04-23T01:11:34.196Z,10.42
2023-04-23T01:12:35.708Z,10.47
2023-04-23T01:13:37.258Z,10.48
2023-04-23T01:14:39.145Z,10.48
2023-04-23T01:15:41.100Z,10.45
2023-04-23T01:16:42.608Z,10.46
2023-04-23T01:17:44.284Z,10.32
2023-04-23T01:18:48.330Z,10.32
2023-04-23T01:19:49.881Z,10.34
2023-04-23T01:20:51.634Z,10.52
2023-04-23T01:21:53.542Z,10.25
2023-04-23T01:22:55.096Z,10.45
2023-04-23T01:23:58.998Z,10.45
2023-04-23T01:25:01.050Z,10.50
2023-04-23T01:26:03.081Z,10.48
2023-04-23T01:27:04.659Z,10.55
2023-04-23T01:28:09.378Z,10.57
2023-04-23T01:29:13.974Z,10.62
2023-04-23T01:30:15.816Z,10.62
2023-04-23T01:31:17.454Z,10.64
2023-04-23T01:32:19.368Z,10.61
2023-04-23T01:33:21.231Z,10.62
2023-04-23T01:34:22.708Z,10.64
2023-04-23T01:35:27.308Z,10.66
2023-04-23T01:36:29.512Z,10.71
2023-04-23T01:37:34.023Z,10.65
2023-04-23T01:38:38.863Z,10.68
2023-04-23T01:39:40.463Z,10.68
2023-04-23T01:40:42.319Z,10.68
2023-04-23T01:41:43.910Z,10.72
2023-04-23T01:42:46.153Z,10.74
2023-04-23T01:43:47.904Z,10.76
2023-04-23T01:44:52.287Z,10.76
2023-04-23T01:45:56.278Z,10.76
2023-04-23T01:46:58.197Z,10.77
2023-04-23T01:48:00.104Z,10.81
2023-04-23T01:49:01.739Z,10.78
2023-04-23T01:50:05.144Z,10.75
2023-04-23T01:51:06.739Z,10.73
2023-04-23T01:52:08.321Z,10.73
2023-04-23T01:53:15.523Z,10.67
2023-04-23T01:54:16.979Z,10.63
2023-04-23T01:55:20.914Z,10.66
2023-04-23T01:56:25.343Z,10.65
2023-04-23T01:57:29.151Z,10.57
2023-04-23T01:58:30.786Z,10.53
2023-04-23T01:59:32.459Z,10.61
2023-04-23T02:00:34.021Z,10.56
2023-04-23T02:01:47.301Z,10.61
2023-04-23T02:02:49.025Z,10.58
2023-04-23T02:03:51.262Z,10.69
2023-04-23T02:04:53.890Z,10.67
2023-04-23T02:05:55.734Z,10.69
2023-04-23T02:06:57.358Z,10.68
2023-04-23T02:07:59.021Z,10.73
2023-04-23T02:09:00.596Z,10.68
2023-04-23T02:10:02.511Z,10.69
2023-04-23T02:11:05.276Z,10.70
2023-04-23T02:12:07.019Z,10.72
2023-04-23T02:13:08.868Z,10.66
2023-04-23T02:14:10.847Z,10.72
2023-04-23T02:15:12.882Z,10.74
2023-04-23T02:16:17.016Z,10.68
2023-04-23T02:17:19.713Z,10.71
2023-04-23T02:18:21.225Z,10.73
2023-04-23T02:19:22.742Z,10.66
2023-04-23T02:20:25.264Z,10.69
2023-04-23T02:21:27.479Z,10.68
2023-04-23T02:22:29.175Z,10.67
2023-04-23T02:23:30.771Z,10.64
2023-04-23T02:24:32.275Z,10.72
2023-04-23T02:25:34.272Z,10.75
2023-04-23T02:26:35.825Z,10.81
2023-04-23T02:27:37.433Z,10.63
2023-04-23T02:28:41.335Z,10.63
2023-04-23T02:29:42.927Z,10.45
2023-04-23T02:30:47.799Z,10.52
2023-04-23T02:31:49.410Z,10.55
2023-04-23T02:32:53.699Z,10.56
2023-04-23T02:33:55.369Z,10.53
2023-04-23T02:34:59.749Z,10.57
2023-04-23T02:36:01.783Z,10.48
2023-04-23T02:37:05.038Z,10.45
2023-04-23T02:38:08.448Z,10.52
2023-04-23T02:39:10.005Z,10.56
2023-04-23T02:40:11.902Z,10.57
2023-04-23T02:41:13.432Z,10.61
2023-04-23T02:42:14.991Z,10.57
2023-04-23T02:43:18.165Z,10.52
2023-04-23T02:44:19.919Z,10.51
2023-04-23T02:45:24.586Z,10.47
2023-04-23T02:46:26.170Z,10.47
2023-04-23T02:47:27.817Z,10.45
2023-04-23T02:48:29.794Z,10.49
2023-04-23T02:49:31.461Z,10.48
2023-04-23T02:50:32.978Z,10.49
2023-04-23T02:51:34.513Z,10.48
2023-04-23T02:52:36.692Z,10.54
2023-04-23T02:53:38.404Z,10.52
2023-04-23T02:54:40.250Z,10.53
2023-04-23T02:55:41.918Z,10.58
2023-04-23T02:56:43.504Z,10.63
2023-04-23T02:57:45.607Z,10.60
2023-04-23T02:58:47.274Z,10.47
2023-04-23T02:59:50.270Z,10.57
2023-04-23T03:00:59.069Z,10.59
2023-04-23T03:02:00.699Z,10.48
2023-04-23T03:03:02.438Z,10.53
2023-04-23T03:04:04.585Z,10.53
2023-04-23T03:05:07.471Z,10.50
2023-04-23T03:06:09.007Z,10.46
2023-04-23T03:07:10.812Z,10.45
2023-04-23T03:08:12.317Z,10.50
2023-04-23T03:09:13.792Z,10.47
2023-04-23T03:10:15.492Z,10.45
2023-04-23T03:11:17.106Z,10.32
2023-04-23T03:12:18.789Z,10.35
2023-04-23T03:13:20.398Z,10.36
2023-04-23T03:14:22.615Z,10.39
2023-04-23T03:15:24.379Z,10.44
2023-04-23T03:16:28.211Z,10.45
2023-04-23T03:17:29.833Z,10.48
2023-04-23T03:18:31.492Z,10.47
2023-04-23T03:19:33.424Z,10.42
2023-04-23T03:20:35.728Z,10.36
2023-04-23T03:21:37.340Z,10.43
2023-04-23T03:22:41.257Z,10.44
2023-04-23T03:23:43.047Z,10.47
2023-04-23T03:24:44.823Z,10.48
2023-04-23T03:25:46.369Z,10.41
2023-04-23T03:26:48.303Z,10.46
2023-04-23T03:27:50.262Z,10.49
2023-04-23T03:28:51.858Z,10.47
2023-04-23T03:29:53.627Z,10.47
2023-04-23T03:30:55.396Z,10.46
2023-04-23T03:31:56.952Z,10.42
2023-04-23T03:33:02.336Z,10.46
2023-04-23T03:34:06.196Z,10.45
2023-04-23T03:35:12.095Z,10.45
2023-04-23T03:36:18.171Z,10.45
2023-04-23T03:37:19.787Z,10.47
2023-04-23T03:38:21.398Z,10.48
2023-04-23T03:39:24.253Z,10.48
2023-04-23T03:40:28.790Z,10.52
2023-04-23T03:41:33.960Z,10.50
2023-04-23T03:42:36.828Z,10.57
2023-04-23T03:43:38.644Z,10.51
2023-04-23T03:44:52.260Z,10.54
2023-04-23T03:45:53.881Z,10.57
2023-04-23T03:46:55.800Z,10.51
2023-04-23T03:47:57.388Z,10.49
2023-04-23T03:48:58.967Z,10.50
2023-04-23T03:50:02.082Z,10.51
2023-04-23T03:51:04.381Z,10.51
2023-04-23T03:52:11.256Z,10.50
2023-04-23T03:53:14.083Z,10.48
2023-04-23T03:54:47.729Z,10.50
2023-04-23T03:55:52.947Z,10.48
2023-04-23T03:56:54.849Z,10.47
2023-04-23T03:58:01.743Z,10.46
2023-04-23T03:59:11.445Z,10.49
2023-04-23T04:00:13.257Z,10.48
2023-04-23T04:01:14.736Z,10.47
2023-04-23T04:02:16.434Z,10.48
2023-04-23T04:03:18.474Z,10.44
2023-04-23T04:04:20.449Z,10.44
2023-04-23T04:05:24.058Z,10.44
2023-04-23T04:06:28.181Z,10.43
2023-04-23T04:07:30.659Z,10.41
2023-04-23T04:08:32.117Z,10.39
2023-04-23T04:09:35.061Z,10.43
2023-04-23T04:10:38.694Z,10.40
2023-04-23T04:11:41.106Z,10.34
2023-04-23T04:12:45.584Z,10.33
2023-04-23T04:13:47.098Z,10.31
2023-04-23T04:14:48.645Z,10.13
2023-04-23T04:15:50.560Z,10.18
2023-04-23T04:16:52.128Z,10.14
2023-04-23T04:17:53.716Z,10.16
2023-04-23T04:18:56.631Z,10.19
2023-04-23T04:20:00.724Z,10.19
2023-04-23T04:21:02.281Z,10.19
2023-04-23T04:22:03.888Z,10.11
2023-04-23T04:23:05.434Z,10.06
2023-04-23T04:24:06.911Z,10.09
2023-04-23T04:25:08.590Z,10.09
2023-04-23T04:26:13.056Z,10.08
2023-04-23T04:27:16.863Z,10.04
2023-04-23T04:28:18.470Z,10.05
2023-04-23T04:29:21.379Z,9.97
2023-04-23T04:32:31.939Z,9.96
2023-04-23T04:33:35.982Z,9.93
2023-04-23T04:34:38.342Z,9.90
2023-04-23T04:35:40.038Z,9.97
2023-04-23T04:36:42.313Z,9.98
2023-04-23T04:37:46.302Z,9.99
2023-04-23T04:38:47.852Z,9.98
2023-04-23T04:39:49.530Z,9.91
2023-04-23T04:40:50.969Z,9.92
2023-04-23T04:41:53.284Z,9.91
2023-04-23T04:42:55.126Z,9.91
2023-04-23T04:43:56.759Z,9.89
2023-04-23T04:45:01.155Z,9.91
2023-04-23T04:46:03.463Z,9.93
2023-04-23T04:47:08.042Z,9.91
2023-04-23T04:48:09.902Z,9.92
2023-04-23T04:49:12.298Z,9.93
2023-04-23T04:50:13.810Z,9.97
2023-04-23T04:51:15.847Z,10.00
2023-04-23T04:52:17.638Z,10.02
2023-04-23T04:53:19.200Z,10.04
2023-04-23T04:54:21.840Z,10.06
2023-04-23T04:55:23.382Z,10.05
2023-04-23T04:56:27.236Z,10.05
2023-04-23T04:57:28.902Z,10.05
2023-04-23T04:58:32.792Z,10.01
2023-04-23T04:59:34.279Z,10.00
2023-04-23T05:00:35.848Z,10.01
2023-04-23T05:01:37.897Z,10.02
2023-04-23T05:02:39.643Z,10.05
2023-04-23T05:03:41.501Z,10.02
2023-04-23T05:04:43.432Z,9.98
2023-04-23T05:05:50.671Z,10.02
2023-04-23T05:06:52.273Z,10.06
2023-04-23T05:07:54.409Z,10.06
2023-04-23T05:08:55.964Z,10.08
2023-04-23T05:09:57.548Z,10.09
2023-04-23T05:11:00.775Z,10.08
2023-04-23T05:12:02.324Z,10.09
2023-04-23T05:13:04.145Z,10.07
2023-04-23T05:14:05.754Z,10.07
2023-04-23T05:15:13.114Z,10.09
2023-04-23T05:16:14.778Z,10.14
2023-04-23T05:17:18.838Z,10.16
2023-04-23T05:18:21.083Z,10.14
2023-04-23T05:19:22.713Z,10.13
2023-04-23T05:20:24.206Z,10.12
2023-04-23T05:21:27.583Z,10.14
2023-04-23T05:22:29.357Z,10.17
2023-04-23T05:23:30.907Z,10.18
2023-04-23T05:24:32.499Z,10.24
2023-04-23T05:25:35.612Z,10.22
2023-04-23T05:26:37.278Z,10.23
2023-04-23T05:27:41.349Z,10.18
2023-04-23T05:28:42.981Z,10.16
2023-04-23T05:29:44.522Z,10.16
2023-04-23T05:30:48.144Z,10.20
2023-04-23T05:31:52.107Z,10.15
2023-04-23T05:32:53.650Z,10.14
2023-04-23T05:33:55.265Z,10.07
2023-04-23T05:36:06.630Z,10.23
2023-04-23T05:37:11.017Z,10.30
2023-04-23T05:38:12.609Z,10.34
2023-04-23T05:39:14.157Z,10.36
2023-04-23T05:40:18.321Z,10.36
2023-04-23T05:41:20.017Z,10.39
2023-04-23T05:42:21.923Z,10.42
2023-04-23T05:43:23.557Z,10.45
2023-04-23T05:44:25.271Z,10.47
2023-04-23T05:45:26.989Z,10.38
2023-04-23T05:46:28.778Z,10.50
2023-04-23T05:47:49.074Z,10.55
2023-04-23T05:49:09.208Z,10.58
2023-04-23T05:50:29.578Z,10.58
2023-04-23T05:51:51.839Z,10.57
2023-04-23T05:53:14.646Z,10.59
2023-04-23T05:54:36.608Z,10.61
2023-04-23T05:55:58.730Z,10.64
2023-04-23T05:57:20.763Z,10.65
2023-04-23T05:58:42.869Z,10.64
2023-04-23T06:00:09.584Z,10.69
2023-04-23T06:01:37.010Z,10.71
2023-04-23T06:03:01.190Z,10.75
2023-04-23T06:04:23.761Z,10.78
2023-04-23T06:05:45.995Z,10.77
2023-04-23T06:07:10.618Z,10.80
2023-04-23T06:08:32.501Z,10.85
2023-04-23T06:09:54.560Z,10.88
2023-04-23T06:11:16.775Z,10.89
2023-04-23T06:12:39.903Z,10.96
2023-04-23T06:14:03.033Z,11.01
2023-04-23T06:15:27.250Z,11.10
2023-04-23T06:16:49.261Z,11.19
2023-04-23T06:18:11.289Z,11.20
2023-04-23T06:19:33.253Z,11.25
2023-04-23T06:20:56.963Z,11.33
2023-04-23T06:22:18.942Z,11.38
2023-04-23T06:23:43.556Z,11.45
2023-04-23T06:25:08.553Z,11.51
2023-04-23T06:26:32.169Z,11.60
2023-04-23T06:27:59.927Z,11.64
2023-04-23T06:29:25.479Z,11.74
2023-04-23T06:30:58.524Z,11.75
2023-04-23T06:32:21.842Z,11.77
2023-04-23T06:33:43.777Z,11.81
2023-04-23T06:35:09.394Z,11.86
2023-04-23T06:36:32.291Z,11.97
2023-04-23T06:37:54.382Z,11.98
2023-04-23T06:39:16.444Z,12.04
2023-04-23T06:40:38.533Z,12.05
2023-04-23T06:42:00.451Z,11.99
2023-04-23T06:43:43.459Z,12.03
2023-04-23T06:45:25.692Z,12.03
2023-04-23T06:46:47.842Z,12.01
2023-04-23T06:48:09.816Z,12.03
2023-04-23T06:49:31.968Z,12.07
2023-04-23T06:50:53.948Z,12.07
2023-04-23T06:52:15.932Z,12.09
2023-04-23T06:53:40.485Z,12.10
2023-04-23T06:55:02.564Z,12.09
2023-04-23T06:56:27.487Z,12.09
2023-04-23T06:57:49.503Z,12.12
2023-04-23T06:58:51.161Z,12.16
2023-04-23T06:59:55.737Z,12.20
2023-04-23T07:01:01.539Z,12.24
2023-04-23T07:02:05.476Z,12.24
2023-04-23T07:03:07.312Z,12.09
2023-04-23T07:04:11.546Z,12.24
2023-04-23T07:05:13.261Z,12.25
2023-04-23T07:06:34.684Z,12.27
2023-04-23T07:07:55.290Z,12.27
2023-04-23T07:09:15.587Z,12.34
2023-04-23T07:10:37.645Z,12.36
2023-04-23T07:11:59.521Z,12.37
2023-04-23T07:13:24.029Z,12.39
2023-04-23T07:14:46.092Z,12.40
2023-04-23T07:16:08.164Z,12.38
2023-04-23T07:17:31.024Z,12.45
2023-04-23T07:18:53.407Z,12.52
2023-04-23T07:20:15.429Z,12.59
2023-04-23T07:21:40.269Z,12.65
2023-04-23T07:23:04.029Z,12.70
2023-04-23T07:24:26.794Z,12.76
2023-04-23T07:25:48.860Z,12.81
2023-04-23T07:27:11.027Z,12.82
2023-04-23T07:28:35.346Z,12.81
2023-04-23T07:29:59.624Z,12.86
2023-04-23T07:31:22.320Z,12.89
2023-04-23T07:32:44.348Z,12.98
2023-04-23T07:34:09.877Z,13.03
2023-04-23T07:35:31.841Z,13.04
2023-04-23T07:36:55.462Z,13.08
2023-04-23T07:38:17.471Z,13.17
2023-04-23T07:39:41.115Z,13.20
2023-04-23T07:41:04.620Z,13.26
2023-04-23T07:42:26.661Z,13.26
2023-04-23T07:43:48.781Z,13.25
2023-04-23T07:44:55.299Z,13.17
2023-04-23T07:45:56.874Z,13.36
2023-04-23T07:46:58.509Z,13.43
2023-04-23T07:48:02.621Z,13.46
2023-04-23T07:49:04.645Z,13.54
2023-04-23T07:50:10.236Z,13.57
2023-04-23T07:51:12.508Z,13.59
2023-04-23T07:52:15.484Z,13.65
2023-04-23T07:53:17.242Z,13.70
2023-04-23T07:54:18.731Z,13.51
2023-04-23T07:55:21.704Z,13.62
2023-04-23T07:56:24.561Z,13.68
2023-04-23T07:57:26.285Z,13.70
2023-04-23T07:58:27.928Z,13.61
2023-04-23T07:59:29.750Z,13.76
2023-04-23T08:00:34.433Z,13.71
2023-04-23T08:01:36.172Z,13.59
2023-04-23T08:02:38.082Z,13.75
2023-04-23T08:03:39.990Z,13.76
2023-04-23T08:04:42.031Z,13.75
2023-04-23T08:05:43.919Z,13.80
2023-04-23T08:06:45.462Z,13.62
2023-04-23T08:07:46.991Z,13.73
2023-04-23T08:08:51.034Z,13.81
2023-04-23T08:09:52.680Z,13.85
2023-04-23T08:10:57.058Z,13.86
2023-04-23T08:11:58.784Z,13.87
2023-04-23T08:13:00.571Z,13.78
2023-04-23T08:14:02.323Z,13.94
2023-04-23T08:15:04.597Z,14.04
2023-04-23T08:16:12.163Z,14.09
2023-04-23T08:17:13.784Z,14.10
2023-04-23T08:18:15.512Z,14.05
2023-04-23T08:19:17.155Z,14.19
2023-04-23T08:20:18.782Z,14.13
2023-04-23T08:21:20.764Z,14.21
2023-04-23T08:22:22.441Z,14.25
2023-04-23T08:23:24.165Z,14.08
2023-04-23T08:24:27.071Z,14.15
2023-04-23T08:25:28.660Z,14.16
2023-04-23T08:26:31.423Z,14.14
2023-04-23T08:27:33.132Z,14.15
2023-04-23T08:28:37.036Z,14.16
2023-04-23T08:29:38.646Z,14.19
2023-04-23T08:30:40.246Z,14.09
2023-04-23T08:31:44.380Z,14.19
2023-04-23T08:32:49.851Z,14.24
2023-04-23T08:33:51.737Z,14.26
2023-04-23T08:34:53.316Z,14.16
2023-04-23T08:35:55.048Z,14.30
2023-04-23T08:36:56.820Z,14.36
2023-04-23T08:37:58.348Z,14.24
2023-04-23T08:39:00.856Z,14.39
2023-04-23T08:40:04.032Z,14.43
2023-04-23T08:41:06.623Z,14.43
2023-04-23T08:42:27.008Z,14.32
2023-04-23T08:43:37.795Z,14.41
2023-04-23T08:44:42.892Z,14.37
2023-04-23T08:45:49.614Z,14.37
2023-04-23T08:46:53.824Z,14.44
2023-04-23T08:48:02.207Z,14.40
2023-04-23T08:49:08.472Z,14.35
2023-04-23T08:50:12.622Z,14.28
2023-04-23T08:51:19.126Z,14.33
2023-04-23T08:52:24.297Z,14.43
2023-04-23T08:53:29.652Z,14.51
2023-04-23T08:54:34.732Z,14.54
2023-04-23T08:55:36.699Z,14.58
2023-04-23T08:56:39.222Z,14.43
2023-04-23T08:57:44.078Z,14.50
2023-04-23T08:58:47.018Z,14.56
2023-04-23T08:59:54.216Z,14.35
2023-04-23T09:00:58.094Z,14.43
2023-04-23T09:02:08.332Z,14.25
2023-04-23T09:03:10.653Z,14.22
2023-04-23T09:04:16.966Z,14.24
2023-04-23T09:05:18.554Z,14.32
2023-04-23T09:06:20.593Z,14.44
2023-04-23T09:07:24.610Z,14.27
2023-04-23T09:08:26.346Z,14.39
2023-04-23T09:09:29.554Z,14.46
2023-04-23T09:10:31.590Z,14.52
2023-04-23T09:11:34.617Z,14.55
2023-04-23T09:12:36.773Z,14.52
2023-04-23T09:13:41.386Z,14.56
2023-04-23T09:14:43.246Z,14.60
2023-04-23T09:15:47.711Z,14.69
2023-04-23T09:16:50.650Z,14.63
2023-04-23T09:17:52.418Z,14.54
2023-04-23T09:18:59.634Z,14.59
2023-04-23T09:20:01.527Z,14.69
2023-04-23T09:21:04.443Z,14.72
2023-04-23T09:22:07.772Z,14.74
2023-04-23T09:23:13.657Z,14.75
2023-04-23T09:24:16.331Z,14.78
2023-04-23T09:25:23.194Z,14.81
2023-04-23T09:26:24.756Z,14.80
2023-04-23T09:27:26.808Z,14.78
2023-04-23T09:28:38.173Z,14.76
2023-04-23T09:29:40.103Z,14.72
2023-04-23T09:30:46.081Z,14.68
2023-04-23T09:31:52.022Z,14.62
2023-04-23T09:32:53.960Z,14.66
2023-04-23T09:33:55.688Z,14.59
2023-04-23T09:34:57.611Z,14.46
2023-04-23T09:35:59.155Z,14.50
2023-04-23T09:37:07.875Z,14.51
2023-04-23T09:38:10.658Z,14.53
2023-04-23T09:39:15.746Z,14.48
2023-04-23T09:40:20.050Z,14.50
2023-04-23T09:41:25.828Z,14.50
2023-04-23T09:42:28.531Z,14.52
2023-04-23T09:43:35.039Z,14.54
2023-04-23T09:44:38.208Z,14.57
2023-04-23T09:45:50.043Z,14.51
2023-04-23T09:46:51.851Z,14.56
2023-04-23T09:47:55.057Z,14.53
2023-04-23T09:49:01.408Z,14.57
2023-04-23T09:50:05.757Z,14.60
2023-04-23T09:51:07.653Z,14.60
2023-04-23T09:52:11.508Z,14.71
2023-04-23T09:53:14.282Z,14.71
2023-04-23T09:54:19.116Z,14.75
2023-04-23T09:55:35.208Z,14.66
2023-04-23T09:56:36.998Z,14.74
2023-04-23T09:57:43.003Z,14.65
2023-04-23T09:58:45.615Z,14.86
2023-04-23T09:59:52.941Z,14.89
2023-04-23T10:01:08.052Z,14.82
2023-04-23T10:02:11.338Z,14.93
2023-04-23T10:03:15.778Z,14.96
2023-04-23T10:04:27.430Z,14.92
2023-04-23T10:05:45.408Z,14.93
2023-04-23T10:07:13.736Z,14.96
2023-04-23T10:08:19.659Z,15.01
2023-04-23T10:09:24.512Z,15.03
2023-04-23T10:10:26.435Z,15.07
2023-04-23T10:11:28.306Z,15.02
2023-04-23T10:12:46.699Z,15.03
2023-04-23T10:13:53.657Z,14.95
2023-04-23T10:14:57.440Z,15.03
2023-04-23T10:16:13.972Z,15.11
2023-04-23T10:17:22.800Z,15.28
2023-04-23T10:18:24.790Z,15.41
2023-04-23T10:19:29.874Z,15.44
2023-04-23T10:20:31.985Z,15.54
2023-04-23T10:21:46.295Z,15.59
2023-04-23T10:22:57.491Z,15.60
2023-04-23T10:24:02.273Z,15.73
2023-04-23T10:25:11.473Z,15.84
2023-04-23T10:26:16.139Z,15.97
2023-04-23T10:27:28.542Z,16.02
2023-04-23T10:28:36.088Z,16.13
2023-04-23T10:29:41.444Z,16.15
2023-04-23T10:30:44.581Z,16.24
2023-04-23T10:31:46.448Z,16.25
2023-04-23T10:32:49.793Z,16.29
2023-04-23T10:33:59.319Z,16.29
2023-04-23T10:35:03.737Z,16.16
2023-04-23T10:36:06.141Z,16.19
2023-04-23T10:37:11.403Z,16.31
2023-04-23T10:38:14.387Z,16.32
2023-04-23T10:39:24.018Z,16.23
2023-04-23T10:40:34.061Z,16.23
2023-04-23T10:41:44.018Z,16.25
2023-04-23T10:42:46.533Z,16.01
2023-04-23T10:43:48.280Z,16.15
2023-04-23T10:44:59.572Z,16.11
2023-04-23T10:46:32.112Z,16.24
2023-04-23T10:47:33.845Z,16.38
2023-04-23T10:49:08.181Z,16.45
2023-04-23T10:50:24.926Z,16.48
2023-04-23T10:52:14.573Z,16.46
2023-04-23T10:52:57.650Z,16.54
2023-04-23T10:53:59.909Z,16.56
2023-04-23T10:55:01.543Z,16.41
2023-04-23T10:56:07.922Z,16.51
2023-04-23T10:57:11.087Z,16.45
2023-04-23T10:58:14.807Z,16.57
2023-04-23T10:59:20.524Z,16.53
2023-04-23T11:00:22.346Z,16.57
2023-04-23T11:01:25.784Z,16.60
2023-04-23T11:02:43.907Z,16.72
2023-04-23T11:03:46.002Z,16.83
2023-04-23T11:04:57.163Z,16.91
2023-04-23T11:06:03.442Z,16.97
2023-04-23T11:07:09.322Z,16.95
2023-04-23T11:08:19.401Z,16.84
2023-04-23T11:09:36.411Z,16.95
2023-04-23T11:10:57.986Z,17.19
2023-04-23T11:12:05.827Z,17.34
2023-04-23T11:13:29.593Z,17.33
2023-04-23T11:14:43.326Z,17.43
2023-04-23T11:15:46.935Z,17.55
2023-04-23T11:16:48.946Z,17.64
2023-04-23T11:17:59.435Z,17.63
2023-04-23T11:19:18.340Z,17.62
2023-04-23T11:20:23.975Z,17.57
2023-04-23T11:21:59.598Z,17.49
2023-04-23T11:23:01.323Z,17.46
2023-04-23T11:24:03.028Z,17.27
2023-04-23T11:25:08.730Z,17.11
2023-04-23T11:26:10.458Z,17.21
2023-04-23T11:27:13.151Z,17.10
2023-04-23T11:28:16.240Z,17.22
2023-04-23T11:29:21.294Z,17.25
2023-04-23T11:30:24.916Z,17.33
2023-04-23T11:31:26.840Z,17.39
2023-04-23T11:32:28.626Z,17.45
2023-04-23T11:33:30.125Z,17.34
2023-04-23T11:34:33.890Z,17.37
2023-04-23T11:35:41.451Z,17.49
2023-04-23T11:36:46.578Z,17.55
2023-04-23T11:37:48.829Z,17.54
2023-04-23T11:38:56.268Z,17.54
2023-04-23T11:40:08.650Z,17.49
2023-04-23T11:41:10.273Z,17.51
2023-04-23T11:42:13.077Z,17.48
2023-04-23T11:43:19.540Z,17.69
2023-04-23T11:44:23.234Z,17.69
2023-04-23T11:45:26.354Z,17.60
2023-04-23T11:46:28.092Z,17.87
2023-04-23T11:47:30.289Z,18.00
2023-04-23T11:48:34.080Z,18.08
2023-04-23T11:49:38.106Z,18.14
2023-04-23T11:50:41.898Z,18.18
2023-04-23T11:51:46.345Z,18.27
2023-04-23T11:52:48.173Z,18.32
2023-04-23T11:53:49.908Z,18.35
2023-04-23T11:54:51.650Z,18.25
2023-04-23T11:55:56.654Z,18.29
2023-04-23T11:56:59.298Z,18.25
2023-04-23T11:58:00.880Z,18.25
2023-04-23T11:59:05.792Z,18.21
2023-04-23T12:00:16.323Z,18.11
2023-04-23T12:01:17.960Z,18.13
2023-04-23T12:02:19.728Z,18.17
2023-04-23T12:03:27.127Z,18.23
2023-04-23T12:04:30.765Z,18.18
2023-04-23T12:05:36.659Z,18.22
2023-04-23T12:06:40.214Z,18.29
2023-04-23T12:07:41.830Z,18.29
2023-04-23T12:08:47.118Z,18.34
2023-04-23T12:09:48.737Z,18.42
2023-04-23T12:10:55.045Z,18.31
2023-04-23T12:12:00.289Z,18.53
2023-04-23T12:13:04.183Z,18.51
2023-04-23T12:14:08.538Z,18.55
2023-04-23T12:15:12.709Z,18.64
2023-04-23T12:16:14.647Z,18.72
2023-04-23T12:17:16.409Z,18.67
2023-04-23T12:18:20.453Z,18.76
2023-04-23T12:19:29.466Z,18.78
2023-04-23T12:20:31.097Z,18.88
2023-04-23T12:21:34.690Z,18.98
2023-04-23T12:22:38.436Z,19.04
2023-04-23T12:23:42.106Z,18.84
2023-04-23T12:24:48.797Z,18.86
2023-04-23T12:25:54.846Z,18.89
2023-04-23T12:27:00.447Z,18.94
2023-04-23T12:28:07.411Z,19.00
2023-04-23T12:29:09.157Z,19.05
2023-04-23T12:30:11.837Z,18.97
2023-04-23T12:31:20.865Z,18.96
2023-04-23T12:32:27.064Z,19.09
2023-04-23T12:33:30.595Z,19.09
2023-04-23T12:34:32.335Z,19.01
2023-04-23T12:35:47.006Z,18.89
2023-04-23T12:36:51.580Z,18.90
2023-04-23T12:37:53.144Z,18.93
2023-04-23T12:38:54.760Z,18.90
2023-04-23T12:39:59.645Z,18.83
2023-04-23T12:41:01.888Z,18.78
2023-04-23T12:42:06.696Z,18.79
2023-04-23T12:43:08.496Z,18.84
2023-04-23T12:44:12.450Z,18.69
2023-04-23T12:45:14.123Z,18.72
2023-04-23T12:46:15.695Z,18.55
2023-04-23T12:47:19.527Z,18.48
2023-04-23T12:48:21.232Z,18.56
2023-04-23T12:49:22.804Z,18.57
2023-04-23T12:50:24.366Z,18.61
2023-04-23T12:51:25.887Z,18.63
2023-04-23T12:52:28.357Z,18.68
2023-04-23T12:53:29.851Z,18.75
2023-04-23T12:54:32.351Z,18.74
2023-04-23T12:55:35.702Z,18.76
2023-04-23T12:56:37.764Z,18.75
2023-04-23T12:57:39.202Z,18.76
2023-04-23T12:58:40.744Z,18.76
2023-04-23T12:59:42.414Z,18.67
2023-04-23T13:00:44.367Z,18.64
2023-04-23T13:01:48.375Z,18.58
2023-04-23T13:02:50.108Z,18.52
2023-04-23T13:03:51.946Z,18.43
2023-04-23T13:04:59.554Z,18.40
2023-04-23T13:06:01.153Z,18.34
2023-04-23T13:07:03.134Z,18.27
2023-04-23T13:08:04.818Z,18.22
2023-04-23T13:09:11.332Z,18.11
2023-04-23T13:10:12.945Z,18.06
2023-04-23T13:11:14.540Z,17.91
2023-04-23T13:12:16.136Z,17.93
2023-04-23T13:13:17.767Z,17.95
2023-04-23T13:14:19.699Z,18.00
2023-04-23T13:15:21.208Z,17.90
2023-04-23T13:16:22.860Z,17.81
2023-04-23T13:17:26.233Z,17.85
2023-04-23T13:18:27.778Z,17.85
2023-04-23T13:19:29.282Z,17.71
2023-04-23T13:20:30.805Z,17.77
2023-04-23T13:21:32.362Z,17.78
2023-04-23T13:22:34.006Z,17.72
2023-04-23T13:23:38.359Z,17.73
2023-04-23T13:24:42.118Z,17.76
2023-04-23T13:25:43.641Z,17.81
2023-04-23T13:26:45.237Z,17.79
2023-04-23T13:27:46.736Z,17.87
2023-04-23T13:28:48.248Z,17.78
2023-04-23T13:29:49.806Z,17.83
2023-04-23T13:30:51.249Z,17.90
2023-04-23T13:31:53.669Z,17.91
2023-04-23T13:32:57.551Z,17.84
2023-04-23T13:33:59.203Z,17.89
2023-04-23T13:35:02.806Z,17.94
2023-04-23T13:36:04.618Z,17.92
2023-04-23T13:37:09.379Z,17.98
2023-04-23T13:38:15.337Z,18.00
2023-04-23T13:39:20.360Z,17.81
2023-04-23T13:40:21.873Z,18.05
2023-04-23T13:41:23.381Z,18.09
2023-04-23T13:42:25.017Z,18.04
2023-04-23T13:43:26.603Z,18.04
2023-04-23T13:44:28.058Z,18.04
2023-04-23T13:45:29.529Z,17.99
2023-04-23T13:46:31.710Z,18.02
2023-04-23T13:47:34.800Z,18.06
2023-04-23T13:48:36.466Z,18.03
2023-04-23T13:49:40.595Z,18.01
2023-04-23T13:50:42.588Z,17.98
2023-04-23T13:51:44.210Z,17.91
2023-04-23T13:52:45.812Z,17.75
2023-04-23T13:53:47.516Z,17.67
2023-04-23T13:54:50.841Z,17.43
2023-04-23T13:55:52.456Z,17.46
2023-04-23T13:56:55.064Z,17.44
2023-04-23T13:57:59.686Z,17.42
2023-04-23T14:00:08.438Z,17.29
2023-04-23T14:01:11.858Z,17.23
2023-04-23T14:02:17.002Z,17.18
2023-04-23T14:03:20.287Z,17.20
2023-04-23T14:04:24.910Z,17.14
2023-04-23T14:05:26.484Z,17.04
2023-04-23T14:06:27.989Z,17.08
2023-04-23T14:07:29.499Z,16.84
2023-04-23T14:08:31.087Z,16.80
2023-04-23T14:09:32.842Z,16.79
2023-04-23T14:10:34.764Z,16.73
2023-04-23T14:11:36.491Z,16.82
2023-04-23T14:12:40.810Z,16.79